Time;durP1;ratioP1;P1;durP2;ratioP2;P2;SDS_P1;SDS_P2;PMS_P1;PMS_P2;Temp;Humidity;BMP_temperature;BMP_pressure;BME280_temperature;BME280_humidity;BME280_pressure;Samples;Min_cycle;Max_cycle;Signal;HPM_P1;HPM_P2
2023/04/17 00:01:25;;;;;;;24.98;8.25;;;11.00;99.90;;;;;;5108453;28;20048;-56
2023/04/17 00:03:53;;;;;;;25.15;7.97;;;11.00;99.90;;;;;;5108558;28;20511;-56
2023/04/17 00:06:21;;;;;;;21.60;8.55;;;11.00;99.90;;;;;;5108299;28;20047;-56
2023/04/17 00:08:49;;;;;;;24.90;7.60;;;11.00;99.90;;;;;;5103888;28;20745;-56
2023/04/17 00:11:17;;;;;;;24.92;8.52;;;11.00;99.90;;;;;;5073566;28;20118;-56
2023/04/17 00:13:45;;;;;;;30.20;7.55;;;11.00;99.90;;;;;;5100280;28;20058;-56
2023/04/17 00:16:12;;;;;;;22.35;7.55;;;10.90;99.90;;;;;;5105725;28;20052;-56
2023/04/17 00:18:40;;;;;;;23.67;7.97;;;10.90;99.90;;;;;;5100672;28;20055;-57
2023/04/17 00:21:08;;;;;;;23.58;7.60;;;10.90;99.90;;;;;;5097447;28;20042;-57
2023/04/17 00:23:35;;;;;;;22.38;7.50;;;10.90;99.90;;;;;;5108230;28;20055;-55
2023/04/17 00:26:03;;;;;;;27.52;9.05;;;10.90;99.90;;;;;;5099128;28;20043;-55
2023/04/17 00:28:31;;;;;;;34.58;7.45;;;10.90;99.90;;;;;;5107366;28;20548;-56
2023/04/17 00:30:59;;;;;;;21.40;7.50;;;10.90;99.90;;;;;;5107867;28;20035;-55
2023/04/17 00:33:27;;;;;;;21.98;7.50;;;10.90;99.90;;;;;;5107809;28;20066;-56
2023/04/17 00:35:55;;;;;;;19.27;6.68;;;10.90;99.90;;;;;;5108398;28;20055;-56
2023/04/17 00:38:24;;;;;;;23.48;8.98;;;10.90;99.90;;;;;;5107559;28;20059;-57
2023/04/17 00:40:51;;;;;;;22.88;8.30;;;10.90;99.90;;;;;;5108378;28;20640;-57
2023/04/17 00:43:19;;;;;;;20.17;8.38;;;10.90;99.90;;;;;;5108427;28;20051;-56
2023/04/17 00:45:47;;;;;;;21.60;8.02;;;10.90;99.90;;;;;;5089749;28;20074;-56
2023/04/17 00:48:17;;;;;;;29.48;8.60;;;10.90;99.90;;;;;;5101805;28;20048;-57
2023/04/17 00:50:45;;;;;;;23.40;8.80;;;10.90;99.90;;;;;;5069980;28;20114;-56
2023/04/17 00:53:13;;;;;;;25.38;8.32;;;10.90;99.90;;;;;;5093041;28;20047;-56
2023/04/17 00:55:43;;;;;;;30.73;8.68;;;10.90;99.90;;;;;;5086624;28;20047;-57
2023/04/17 00:58:11;;;;;;;29.13;8.85;;;10.90;99.90;;;;;;5097005;28;20058;-58
2023/04/17 01:00:38;;;;;;;23.38;8.38;;;10.90;99.90;;;;;;5108082;28;20619;-57
2023/04/17 01:03:07;;;;;;;28.13;8.85;;;10.90;99.90;;;;;;5103919;28;20047;-56
2023/04/17 01:05:37;;;;;;;20.23;8.45;;;10.90;99.90;;;;;;5085648;28;20054;-56
2023/04/17 01:08:06;;;;;;;25.70;9.88;;;10.90;99.90;;;;;;5086869;28;20475;-56
2023/04/17 01:10:33;;;;;;;31.98;10.80;;;10.90;99.90;;;;;;5089049;28;20063;-55
2023/04/17 01:13:02;;;;;;;34.25;10.50;;;10.90;99.90;;;;;;5070801;28;20044;-56
2023/04/17 01:15:30;;;;;;;35.65;10.70;;;10.80;99.90;;;;;;5081087;28;20036;-57
2023/04/17 01:17:58;;;;;;;33.22;11.02;;;10.80;99.90;;;;;;5075344;28;20048;-57
2023/04/17 01:20:29;;;;;;;32.13;10.13;;;10.80;99.90;;;;;;5083984;28;20044;-56
2023/04/17 01:22:58;;;;;;;31.23;10.25;;;10.80;99.90;;;;;;5087947;28;20047;-56
2023/04/17 01:25:27;;;;;;;26.73;11.50;;;10.80;99.90;;;;;;5089628;28;20043;-57
2023/04/17 01:27:55;;;;;;;33.72;11.30;;;10.80;99.90;;;;;;5106571;28;20039;-57
2023/04/17 01:30:28;;;;;;;31.65;9.40;;;10.80;99.90;;;;;;5084718;28;20039;-57
2023/04/17 01:33:14;;;;;;;32.85;11.38;;;10.80;99.90;;;;;;5088119;28;20479;-57
2023/04/17 01:35:41;;;;;;;33.95;10.75;;;10.80;99.90;;;;;;5109974;28;20048;-57
2023/04/17 01:38:09;;;;;;;30.75;11.52;;;10.90;99.90;;;;;;5100855;28;20063;-57
2023/04/17 01:40:36;;;;;;;31.67;10.38;;;10.80;99.90;;;;;;5089451;28;20502;-55
2023/04/17 01:43:04;;;;;;;33.40;10.90;;;10.80;99.90;;;;;;5112365;28;20062;-55
2023/04/17 01:45:32;;;;;;;31.77;11.68;;;10.80;99.90;;;;;;5110461;28;20510;-55
2023/04/17 01:48:00;;;;;;;32.78;12.07;;;10.80;99.90;;;;;;5109103;28;20503;-57
2023/04/17 01:50:27;;;;;;;37.25;12.23;;;10.90;99.90;;;;;;5114638;28;20043;-57
2023/04/17 01:52:55;;;;;;;35.58;11.57;;;10.80;99.90;;;;;;5102736;28;20055;-56
2023/04/17 01:55:25;;;;;;;30.02;12.27;;;10.80;99.90;;;;;;5114786;28;20044;-57
2023/04/17 01:57:54;;;;;;;27.65;12.50;;;10.80;99.90;;;;;;5077659;28;20051;-56
2023/04/17 02:00:22;;;;;;;25.98;11.10;;;10.80;99.90;;;;;;5076321;28;20040;-56
2023/04/17 02:02:50;;;;;;;31.60;11.95;;;10.80;99.90;;;;;;5091323;28;20047;-56
2023/04/17 02:05:18;;;;;;;29.70;11.95;;;10.80;99.90;;;;;;5103086;28;20048;-56
2023/04/17 02:07:49;;;;;;;30.92;12.07;;;10.80;99.90;;;;;;5114372;28;20044;-56
2023/04/17 02:10:18;;;;;;;38.78;12.32;;;10.80;99.90;;;;;;5114363;28;20495;-56
2023/04/17 02:12:45;;;;;;;31.50;12.80;;;10.80;99.90;;;;;;5095693;28;20058;-57
2023/04/17 02:15:13;;;;;;;29.25;12.15;;;10.80;99.90;;;;;;5112572;28;20375;-56
2023/04/17 02:17:40;;;;;;;47.53;14.23;;;10.80;99.90;;;;;;5096020;28;20047;-57
2023/04/17 02:20:10;;;;;;;38.20;13.55;;;10.80;99.90;;;;;;5095959;28;20052;-56
2023/04/17 02:22:38;;;;;;;37.28;12.57;;;10.80;99.90;;;;;;5113670;28;20054;-55
2023/04/17 02:25:06;;;;;;;34.92;13.13;;;10.80;99.90;;;;;;5112082;28;20412;-56
2023/04/17 02:27:33;;;;;;;28.30;14.07;;;10.80;99.90;;;;;;5099342;28;20055;-55
2023/04/17 02:30:02;;;;;;;35.85;13.50;;;10.80;99.90;;;;;;5093573;28;20048;-56
2023/04/17 02:32:30;;;;;;;31.50;13.65;;;10.80;99.90;;;;;;5075444;28;20044;-57
2023/04/17 02:34:58;;;;;;;28.20;12.82;;;10.80;99.90;;;;;;5089449;28;20051;-57
2023/04/17 02:37:25;;;;;;;48.25;13.20;;;10.80;99.90;;;;;;5094009;28;20062;-55
2023/04/17 02:39:54;;;;;;;32.15;12.57;;;10.80;99.90;;;;;;5093417;28;20509;-56
2023/04/17 02:42:22;;;;;;;28.73;12.93;;;10.80;99.90;;;;;;5093209;28;20054;-55
2023/04/17 02:44:50;;;;;;;30.88;12.48;;;10.80;99.90;;;;;;5094091;28;20052;-57
2023/04/17 02:47:21;;;;;;;32.03;12.55;;;10.70;99.90;;;;;;5093400;28;20472;-56
2023/04/17 02:49:49;;;;;;;36.15;13.18;;;10.80;99.90;;;;;;5087894;28;20062;-56
2023/04/17 02:52:18;;;;;;;23.88;11.45;;;10.70;99.90;;;;;;5111512;28;20483;-56
2023/04/17 02:54:48;;;;;;;32.40;11.70;;;10.80;99.90;;;;;;5093505;28;20051;-56
2023/04/17 02:57:17;;;;;;;30.77;12.27;;;10.70;99.90;;;;;;5094053;28;20039;-56
2023/04/17 02:59:45;;;;;;;36.92;13.05;;;10.80;99.90;;;;;;5090973;28;20495;-56
2023/04/17 03:02:13;;;;;;;34.72;11.40;;;10.80;99.90;;;;;;5113354;28;20044;-55
2023/04/17 03:04:42;;;;;;;27.40;11.57;;;10.80;99.90;;;;;;5095179;28;20043;-56
2023/04/17 03:07:09;;;;;;;36.67;11.98;;;10.80;99.90;;;;;;5093239;28;20048;-55
2023/04/17 03:09:38;;;;;;;26.42;11.27;;;10.80;99.90;;;;;;5092724;28;20043;-56
2023/04/17 03:12:06;;;;;;;27.92;11.40;;;10.80;99.90;;;;;;5111882;28;20048;-56
2023/04/17 03:14:33;;;;;;;33.13;12.32;;;10.80;99.90;;;;;;5094550;28;20050;-57
2023/04/17 03:17:01;;;;;;;31.15;12.30;;;10.80;99.90;;;;;;5098890;28;20040;-54
2023/04/17 03:19:28;;;;;;;32.92;12.63;;;10.80;99.90;;;;;;5097359;28;20501;-56
2023/04/17 03:21:56;;;;;;;31.58;11.75;;;10.80;99.90;;;;;;5110837;28;20406;-56
2023/04/17 03:24:23;;;;;;;32.97;11.60;;;10.80;99.90;;;;;;5094778;28;20044;-56
2023/04/17 03:26:51;;;;;;;26.02;11.23;;;10.80;99.90;;;;;;5094860;28;20036;-56
2023/04/17 03:29:20;;;;;;;32.47;12.07;;;10.80;99.90;;;;;;5110857;28;20043;-57
2023/04/17 03:31:48;;;;;;;28.02;11.70;;;10.80;99.90;;;;;;5090079;28;20480;-55
2023/04/17 03:34:20;;;;;;;32.30;11.85;;;10.80;99.90;;;;;;5110153;28;20387;-56
2023/04/17 03:36:49;;;;;;;30.77;13.85;;;10.80;99.90;;;;;;5089413;28;20047;-56
2023/04/17 03:39:16;;;;;;;33.03;14.93;;;10.80;99.90;;;;;;5089562;28;20472;-55
2023/04/17 03:41:44;;;;;;;36.20;14.30;;;10.80;99.90;;;;;;5106971;28;20040;-55
2023/04/17 03:44:12;;;;;;;43.42;15.45;;;10.70;99.90;;;;;;5090741;28;20044;-55
2023/04/17 03:46:39;;;;;;;29.00;13.50;;;10.70;99.90;;;;;;5089569;28;20055;-56
2023/04/17 03:49:07;;;;;;;37.17;15.45;;;10.60;99.90;;;;;;5086796;28;20506;-55
2023/04/17 03:51:34;;;;;;;42.58;14.95;;;10.70;99.90;;;;;;5084623;28;20052;-55
2023/04/17 03:54:10;;;;;;;36.20;14.55;;;10.60;99.90;;;;;;5068518;28;20055;-56
2023/04/17 03:56:38;;;;;;;39.85;14.30;;;10.60;99.90;;;;;;5072226;28;20076;-55
2023/04/17 03:59:06;;;;;;;33.42;14.50;;;10.70;99.90;;;;;;5091746;28;20044;-56
2023/04/17 04:01:39;;;;;;;42.13;15.93;;;10.60;99.90;;;;;;5101413;28;20040;-56
2023/04/17 04:04:14;;;;;;;34.97;14.57;;;10.60;99.90;;;;;;5097864;28;20040;-56
2023/04/17 04:06:43;;;;;;;33.03;15.35;;;10.60;99.90;;;;;;5106445;28;20047;-55
2023/04/17 04:09:15;;;;;;;31.52;13.55;;;10.60;99.90;;;;;;5087758;28;20044;-55
2023/04/17 04:11:42;;;;;;;36.92;13.93;;;10.60;99.90;;;;;;5084992;28;20047;-55
2023/04/17 04:14:10;;;;;;;33.85;12.82;;;10.60;99.90;;;;;;5084564;28;20037;-55
2023/04/17 04:16:38;;;;;;;27.50;12.07;;;10.60;99.90;;;;;;5095660;28;20475;-56
2023/04/17 04:19:10;;;;;;;27.75;11.23;;;10.60;99.90;;;;;;5104839;28;20062;-57
2023/04/17 04:21:38;;;;;;;24.05;11.60;;;10.60;99.90;;;;;;5080081;28;20044;-57
2023/04/17 04:24:09;;;;;;;30.00;12.55;;;10.60;99.90;;;;;;5089423;28;20059;-55
2023/04/17 04:26:39;;;;;;;24.55;11.15;;;10.60;99.90;;;;;;5088316;28;21852;-56
2023/04/17 04:29:10;;;;;;;24.67;11.60;;;10.60;99.90;;;;;;5106369;28;20039;-56
2023/04/17 04:32:02;;;;;;;27.70;12.50;;;10.60;99.90;;;;;;5083422;28;20091;-56
2023/04/17 04:34:36;;;;;;;26.25;12.57;;;10.60;99.90;;;;;;5100491;28;20499;-58
2023/04/17 04:37:04;;;;;;;30.45;12.15;;;10.60;99.90;;;;;;5100173;28;20045;-55
2023/04/17 04:39:38;;;;;;;26.33;12.52;;;10.60;99.90;;;;;;5087147;28;20063;-55
2023/04/17 04:42:08;;;;;;;;;;;10.60;99.90;;;;;;5089923;28;20040;-56
2023/04/17 04:44:53;;;;;;;25.90;12.48;;;10.60;99.90;;;;;;5088592;28;19920;-57
2023/04/17 04:47:22;;;;;;;32.40;12.85;;;10.60;99.90;;;;;;5068148;28;20063;-55
2023/04/17 04:49:50;;;;;;;26.13;13.23;;;10.60;99.90;;;;;;5086359;28;20070;-55
2023/04/17 04:52:20;;;;;;;;;;;10.60;99.90;;;;;;5086553;28;20040;-54
2023/04/17 04:54:51;;;;;;;27.92;11.82;;;10.60;99.90;;;;;;5086109;28;19919;-55
2023/04/17 04:57:19;;;;;;;26.02;11.43;;;10.60;99.90;;;;;;5082734;28;20302;-55
2023/04/17 04:59:48;;;;;;;28.25;11.18;;;10.60;99.90;;;;;;5087098;28;20404;-56
2023/04/17 05:02:42;;;;;;;31.73;10.70;;;10.50;99.90;;;;;;5077399;28;20055;-56
2023/04/17 05:05:14;;;;;;;27.75;11.50;;;10.50;99.90;;;;;;5058296;28;20052;-55
2023/04/17 05:07:41;;;;;;;22.45;10.98;;;10.50;99.90;;;;;;5071021;28;20132;-56
2023/04/17 05:10:13;;;;;;;23.30;10.68;;;10.60;99.90;;;;;;5084545;28;20059;-57
2023/04/17 05:12:48;;;;;;;23.50;10.68;;;10.60;99.90;;;;;;5074651;28;20040;-56
2023/04/17 05:15:16;;;;;;;20.80;9.55;;;10.50;99.90;;;;;;5102376;28;20047;-55
2023/04/17 05:17:44;;;;;;;24.70;10.95;;;10.50;99.90;;;;;;5083220;28;20048;-55
2023/04/17 05:20:13;;;;;;;22.42;10.80;;;10.50;99.90;;;;;;5082438;28;20047;-55
2023/04/17 05:22:49;;;;;;;21.60;10.77;;;10.50;99.90;;;;;;5066308;28;20056;-56
2023/04/17 05:25:18;;;;;;;27.13;10.73;;;10.50;99.90;;;;;;5066571;28;20052;-55
2023/04/17 05:27:47;;;;;;;22.80;10.77;;;10.50;99.90;;;;;;5081318;28;20036;-56
2023/04/17 05:30:15;;;;;;;20.50;10.55;;;10.60;99.90;;;;;;5085933;28;20055;-56
2023/04/17 05:32:47;;;;;;;23.85;11.90;;;10.60;99.90;;;;;;5087861;28;20298;-56
2023/04/17 05:35:26;;;;;;;;;;;10.60;99.90;;;;;;5089949;28;20043;-56
2023/04/17 05:37:56;;;;;;;21.60;10.63;;;10.60;99.90;;;;;;5086136;28;19931;-56
2023/04/17 05:40:24;;;;;;;20.85;10.10;;;10.60;99.90;;;;;;5085036;28;20055;-55
2023/04/17 05:42:52;;;;;;;26.60;11.95;;;10.60;99.90;;;;;;5079725;28;20075;-56
2023/04/17 05:45:20;;;;;;;29.65;13.07;;;10.60;99.90;;;;;;5091057;28;20055;-57
2023/04/17 05:47:52;;;;;;;26.45;12.45;;;10.60;99.90;;;;;;5088488;28;20701;-55
2023/04/17 05:50:20;;;;;;;24.15;13.07;;;10.60;99.90;;;;;;5088591;28;20051;-56
2023/04/17 05:52:48;;;;;;;28.63;12.40;;;10.60;99.90;;;;;;5084536;28;20391;-55
2023/04/17 05:55:18;;;;;;;26.55;13.18;;;10.60;99.90;;;;;;5086532;28;20044;-55
2023/04/17 05:57:51;;;;;;;23.67;11.55;;;10.70;99.90;;;;;;5077165;28;20048;-55
2023/04/17 06:00:21;;;;;;;29.80;12.75;;;10.70;99.90;;;;;;5069343;28;20404;-55
2023/04/17 06:03:00;;;;;;;21.83;11.45;;;10.70;99.90;;;;;;5080609;28;20044;-55
2023/04/17 06:05:35;;;;;;;22.30;10.57;;;12.40;99.90;;;;;;5085095;28;20040;-55
2023/04/17 06:08:03;;;;;;;19.90;9.48;;;10.70;99.90;;;;;;5075618;28;20518;-56
2023/04/17 06:10:32;;;;;;;26.85;10.73;;;10.70;99.90;;;;;;5082591;28;20051;-56
2023/04/17 06:13:01;;;;;;;21.35;10.57;;;10.70;99.90;;;;;;5085692;28;20036;-56
2023/04/17 06:15:29;;;;;;;20.88;11.13;;;10.70;99.90;;;;;;5068011;28;20059;-56
2023/04/17 06:17:56;;;;;;;25.98;11.35;;;10.70;99.90;;;;;;5076994;28;20052;-57
2023/04/17 06:20:24;;;;;;;23.85;10.77;;;10.70;99.90;;;;;;5090234;28;20043;-56
2023/04/17 06:22:52;;;;;;;25.80;12.50;;;10.70;99.90;;;;;;5088838;28;20040;-56
2023/04/17 06:25:19;;;;;;;30.00;11.90;;;10.70;99.90;;;;;;5075024;28;20044;-55
2023/04/17 06:27:47;;;;;;;31.73;13.57;;;10.70;99.90;;;;;;5084347;28;20369;-55
2023/04/17 06:30:15;;;;;;;27.67;11.57;;;10.70;99.90;;;;;;5089904;28;20051;-56
2023/04/17 06:32:52;;;;;;;26.88;11.50;;;10.70;99.90;;;;;;5077683;28;20487;-55
2023/04/17 06:35:20;;;;;;;26.85;10.98;;;10.70;99.90;;;;;;5068681;28;20049;-55
2023/04/17 06:37:57;;;;;;;36.42;12.93;;;10.70;99.90;;;;;;5079852;28;20749;-56
2023/04/17 06:40:29;;;;;;;29.92;11.90;;;10.70;99.90;;;;;;5084589;28;20044;-55
2023/04/17 06:42:59;;;;;;;23.65;11.95;;;10.70;99.90;;;;;;5086128;28;20039;-57
2023/04/17 06:45:34;;;;;;;33.17;11.40;;;10.70;99.90;;;;;;5103000;28;20051;-57
2023/04/17 06:48:06;;;;;;;29.48;11.90;;;10.70;99.90;;;;;;5075214;28;20043;-55
2023/04/17 06:50:34;;;;;;;36.55;12.63;;;10.70;99.90;;;;;;5076896;28;20033;-57
2023/04/17 06:53:02;;;;;;;33.10;12.30;;;10.80;99.90;;;;;;5092180;28;20056;-55
2023/04/17 06:55:30;;;;;;;37.47;14.35;;;10.80;99.90;;;;;;5088109;28;20365;-55
2023/04/17 06:58:00;;;;;;;37.83;13.80;;;10.80;99.90;;;;;;5086496;28;20044;-56
2023/04/17 07:00:28;;;;;;;32.95;13.07;;;10.80;99.90;;;;;;5084114;28;20509;-56
2023/04/17 07:02:56;;;;;;;31.55;12.60;;;10.80;99.90;;;;;;5083258;28;20051;-56
2023/04/17 07:05:26;;;;;;;26.00;11.40;;;10.80;99.90;;;;;;5085488;28;20052;-56
2023/04/17 07:07:54;;;;;;;28.95;12.30;;;10.80;99.90;;;;;;5085727;28;20052;-55
2023/04/17 07:10:22;;;;;;;34.63;14.13;;;10.90;99.90;;;;;;5078485;28;20040;-56
2023/04/17 07:12:50;;;;;;;35.55;13.55;;;10.90;99.90;;;;;;5079647;28;20059;-55
2023/04/17 07:15:17;;;;;;;34.63;13.32;;;10.90;99.90;;;;;;5084676;28;20056;-55
2023/04/17 07:17:47;;;;;;;31.45;14.35;;;10.90;99.90;;;;;;5074359;28;20040;-56
2023/04/17 07:20:15;;;;;;;32.10;14.23;;;10.90;99.90;;;;;;5084587;28;20051;-56
2023/04/17 07:22:43;;;;;;;34.40;14.00;;;11.00;99.90;;;;;;5081705;28;20036;-56
2023/04/17 07:25:10;;;;;;;36.45;14.05;;;11.00;99.90;;;;;;5073959;28;20048;-57
2023/04/17 07:27:38;;;;;;;32.70;13.98;;;11.10;99.90;;;;;;5080543;28;20047;-57
2023/04/17 07:30:07;;;;;;;33.45;13.70;;;11.10;99.90;;;;;;5083555;28;20059;-55
2023/04/17 07:32:35;;;;;;;33.03;14.50;;;11.20;99.90;;;;;;5075046;28;20045;-56
2023/04/17 07:35:03;;;;;;;37.53;14.40;;;11.30;99.90;;;;;;5082334;28;20040;-56
2023/04/17 07:37:32;;;;;;;41.92;15.40;;;11.30;99.90;;;;;;5071765;28;20044;-56
2023/04/17 07:40:00;;;;;;;29.65;12.18;;;11.40;99.90;;;;;;5088472;28;20051;-56
2023/04/17 07:42:28;;;;;;;33.15;13.30;;;11.40;99.90;;;;;;5086904;28;20040;-56
2023/04/17 07:44:56;;;;;;;30.25;12.18;;;11.40;99.90;;;;;;5068525;28;20045;-55
2023/04/17 07:47:24;;;;;;;33.17;13.95;;;11.50;99.90;;;;;;5071653;28;20462;-56
2023/04/17 07:49:51;;;;;;;35.42;13.93;;;11.60;99.90;;;;;;5085226;28;20239;-56
2023/04/17 07:52:19;;;;;;;36.22;13.35;;;11.60;99.90;;;;;;5087064;28;20483;-56
2023/04/17 07:54:47;;;;;;;26.77;12.48;;;11.70;99.90;;;;;;5088109;28;20494;-57
2023/04/17 07:57:16;;;;;;;31.20;12.27;;;11.70;99.90;;;;;;5072724;28;20056;-56
2023/04/17 07:59:45;;;;;;;34.08;11.77;;;11.80;99.90;;;;;;5088868;28;20502;-57
2023/04/17 08:02:16;;;;;;;30.90;12.40;;;11.80;99.90;;;;;;5088497;28;20048;-57
2023/04/17 08:04:44;;;;;;;31.55;12.10;;;11.90;99.90;;;;;;5078544;28;20042;-57
2023/04/17 08:07:13;;;;;;;29.20;11.80;;;11.90;99.90;;;;;;5099092;28;20565;-55
2023/04/17 08:09:40;;;;;;;35.63;13.32;;;12.00;99.90;;;;;;5087439;28;20416;-56
2023/04/17 08:12:10;;;;;;;31.98;13.35;;;12.10;99.90;;;;;;5088279;28;20067;-57
2023/04/17 08:14:39;;;;;;;26.98;12.63;;;12.10;99.90;;;;;;5088468;28;20047;-56
2023/04/17 08:17:07;;;;;;;30.55;13.52;;;12.10;99.90;;;;;;5087132;28;20510;-56
2023/04/17 08:19:35;;;;;;;35.85;13.32;;;12.20;99.90;;;;;;5087697;28;20052;-56
2023/04/17 08:22:04;;;;;;;31.77;12.75;;;12.20;99.90;;;;;;5072107;28;20053;-55
2023/04/17 08:24:32;;;;;;;37.20;11.90;;;12.20;99.90;;;;;;5088138;28;20194;-55
2023/04/17 08:27:00;;;;;;;34.83;13.27;;;12.30;99.90;;;;;;5088269;28;20047;-56
2023/04/17 08:29:28;;;;;;;26.38;11.85;;;12.30;99.90;;;;;;5085768;28;20036;-57
2023/04/17 08:31:55;;;;;;;30.83;12.48;;;12.40;99.90;;;;;;5088074;28;20389;-56
2023/04/17 08:34:41;;;;;;;31.52;13.25;;;12.40;99.90;;;;;;5075423;28;20460;-57
2023/04/17 08:37:09;;;;;;;37.25;13.30;;;12.50;99.90;;;;;;5080961;28;20044;-57
2023/04/17 08:39:37;;;;;;;30.50;12.70;;;12.60;99.90;;;;;;5070066;28;20832;-56
2023/04/17 08:42:09;;;;;;;27.95;11.45;;;12.70;99.90;;;;;;5088821;28;20044;-57
2023/04/17 08:44:44;;;;;;;30.48;12.50;;;12.70;99.90;;;;;;5108581;28;20043;-57
2023/04/17 08:47:12;;;;;;;26.08;11.43;;;12.80;99.90;;;;;;5108047;28;20070;-56
2023/04/17 08:49:42;;;;;;;30.75;11.95;;;12.90;99.90;;;;;;5093974;28;20051;-55
2023/04/17 08:52:12;;;;;;;27.40;12.57;;;13.00;99.90;;;;;;5111276;28;20407;-60
2023/04/17 08:54:39;;;;;;;28.40;11.63;;;13.10;99.90;;;;;;5111869;28;20048;-57
2023/04/17 08:57:07;;;;;;;30.83;14.10;;;13.10;99.90;;;;;;5111844;28;20059;-57
2023/04/17 08:59:34;;;;;;;31.17;12.35;;;13.20;99.90;;;;;;5112546;28;20044;-57
2023/04/17 09:02:06;;;;;;;27.40;12.45;;;13.20;99.90;;;;;;5111878;28;20048;-57
2023/04/17 09:04:42;;;;;;;28.23;12.18;;;13.20;99.90;;;;;;5105792;28;20050;-57
2023/04/17 09:07:12;;;;;;;28.88;12.05;;;13.20;99.90;;;;;;5111843;28;20529;-58
2023/04/17 09:09:46;;;;;;;28.45;11.20;;;13.20;99.90;;;;;;5111696;28;20372;-57
2023/04/17 09:12:14;;;;;;;27.00;11.30;;;13.20;99.90;;;;;;5111872;28;20054;-55
2023/04/17 09:14:42;;;;;;;21.90;11.82;;;13.20;99.90;;;;;;5093757;28;20051;-56
2023/04/17 09:17:10;;;;;;;25.33;11.27;;;13.30;99.90;;;;;;5095618;28;20632;-57
2023/04/17 09:20:08;;;;;;;29.60;11.45;;;13.20;99.90;;;;;;5110982;28;20526;-57
2023/04/17 09:22:39;;;;;;;23.02;11.30;;;13.30;99.90;;;;;;5092422;28;20344;-55
2023/04/17 09:25:19;;;;;;;26.35;10.68;;;13.30;99.90;;;;;;5109619;28;20047;-56
2023/04/17 09:27:47;;;;;;;31.02;10.45;;;13.40;99.90;;;;;;5102086;28;20044;-57
2023/04/17 09:30:15;;;;;;;23.38;10.50;;;13.40;99.90;;;;;;5087816;28;20643;-57
2023/04/17 09:32:42;;;;;;;23.08;10.75;;;13.40;99.90;;;;;;5107293;28;20048;-55
2023/04/17 09:35:21;;;;;;;27.40;11.23;;;13.50;99.90;;;;;;5111004;28;20039;-56
2023/04/17 09:37:54;;;;;;;24.05;10.90;;;13.50;99.90;;;;;;5104372;28;20051;-56
2023/04/17 09:40:24;;;;;;;26.95;10.70;;;13.50;99.90;;;;;;5100607;28;20040;-56
2023/04/17 09:43:01;;;;;;;;;;;13.60;99.90;;;;;;5111472;28;20043;-56
2023/04/17 09:45:40;;;;;;;25.35;9.35;;;13.70;99.90;;;;;;5112049;28;19923;-57
2023/04/17 09:48:09;;;;;;;;;;;13.80;99.90;;;;;;5111664;28;20052;-57
2023/04/17 09:50:38;;;;;;;23.83;9.10;;;13.80;99.90;;;;;;5110657;28;19920;-57
2023/04/17 09:53:07;;;;;;;19.38;8.98;;;13.90;99.90;;;;;;5105128;28;20596;-56
2023/04/17 09:55:36;;;;;;;21.33;9.43;;;13.90;99.90;;;;;;5111443;28;20047;-56
2023/04/17 09:58:06;;;;;;;14.85;8.40;;;14.00;99.90;;;;;;5111197;28;20047;-58
2023/04/17 10:00:36;;;;;;;21.98;9.07;;;14.10;99.90;;;;;;5072635;28;20055;-57
2023/04/17 10:03:06;;;;;;;15.77;7.63;;;14.10;99.90;;;;;;5099508;28;20043;-58
2023/04/17 10:05:35;;;;;;;16.50;8.52;;;14.00;99.90;;;;;;5084867;28;20047;-57
2023/04/17 10:08:03;;;;;;;13.15;7.25;;;14.00;99.90;;;;;;5106356;28;20051;-56
2023/04/17 10:10:32;;;;;;;12.93;6.22;;;14.00;99.90;;;;;;5110974;28;20040;-57
2023/04/17 10:13:06;;;;;;;16.02;6.38;;;14.00;99.90;;;;;;5108270;28;20053;-57
2023/04/17 10:15:38;;;;;;;9.45;5.50;;;13.90;99.90;;;;;;5086070;28;20051;-56
2023/04/17 10:18:24;;;;;;;12.50;5.75;;;14.00;99.90;;;;;;5082923;28;20048;-56
2023/04/17 10:20:52;;;;;;;14.25;6.50;;;14.00;99.90;;;;;;5080439;28;20035;-56
2023/04/17 10:23:33;;;;;;;12.65;5.82;;;14.00;99.90;;;;;;5109340;28;20055;-59
2023/04/17 10:26:26;;;;;;;13.70;6.07;;;14.10;99.90;;;;;;5108140;28;20047;-56
2023/04/17 10:28:56;;;;;;;14.15;6.43;;;14.10;99.90;;;;;;5106207;28;20490;-57
2023/04/17 10:32:09;;;;;;;15.60;7.38;;;14.20;99.90;;;;;;5104886;28;20632;-57
2023/04/17 10:34:38;;;;;;;15.05;6.75;;;14.20;99.90;;;;;;5086795;28;20059;-57
2023/04/17 10:37:14;;;;;;;12.88;6.40;;;14.30;99.90;;;;;;5105834;28;20391;-57
2023/04/17 10:39:58;;;;;;;14.43;8.23;;;14.30;99.90;;;;;;5089992;28;20059;-56
2023/04/17 10:42:29;;;;;;;14.80;7.57;;;14.40;99.90;;;;;;5093384;28;20047;-58
2023/04/17 10:45:04;;;;;;;10.80;6.65;;;14.40;99.90;;;;;;5092218;28;20040;-56
2023/04/17 10:47:34;;;;;;;14.60;7.25;;;14.30;99.90;;;;;;5110100;28;20059;-56
2023/04/17 10:50:04;;;;;;;16.77;7.65;;;14.20;99.90;;;;;;5096026;28;20055;-56
2023/04/17 10:52:31;;;;;;;15.05;7.68;;;14.20;99.90;;;;;;5108188;28;20050;-55
2023/04/17 10:55:21;;;;;;;13.10;6.97;;;14.10;99.90;;;;;;5108682;28;20039;-56
2023/04/17 10:58:00;;;;;;;;;;;14.00;99.90;;;;;;5110477;28;20036;-57
2023/04/17 11:00:29;;;;;;;14.45;7.30;;;14.10;99.90;;;;;;5109984;28;19924;-57
2023/04/17 11:03:01;;;;;;;14.95;7.82;;;14.00;99.90;;;;;;5107933;28;20121;-57
2023/04/17 11:05:34;;;;;;;15.70;8.02;;;14.00;99.90;;;;;;5102389;28;20051;-56
2023/04/17 11:08:02;;;;;;;15.52;8.00;;;14.10;99.90;;;;;;5109246;28;20400;-56
2023/04/17 11:10:34;;;;;;;17.10;8.25;;;14.20;99.90;;;;;;5109602;28;20066;-57
2023/04/17 11:13:01;;;;;;;12.45;7.60;;;14.40;99.90;;;;;;5109420;28;20058;-56
2023/04/17 11:15:31;;;;;;;15.90;8.50;;;14.50;99.90;;;;;;5105351;28;20039;-55
2023/04/17 11:18:00;;;;;;;13.73;8.98;;;14.70;99.90;;;;;;5108453;28;20078;-56
2023/04/17 11:20:32;;;;;;;15.48;7.88;;;14.80;99.90;;;;;;5089968;28;20055;-56
2023/04/17 11:23:01;;;;;;;12.48;7.78;;;15.00;99.90;;;;;;5108468;28;20055;-57
2023/04/17 11:25:32;;;;;;;11.40;7.13;;;15.00;99.90;;;;;;5089264;28;20051;-58
2023/04/17 11:28:02;;;;;;;13.43;8.05;;;15.10;99.90;;;;;;5096042;28;20044;-57
2023/04/17 11:30:34;;;;;;;14.57;8.30;;;15.20;99.90;;;;;;5091541;28;20043;-56
2023/04/17 11:33:06;;;;;;;15.50;7.35;;;15.40;99.90;;;;;;5102805;28;20058;-57
2023/04/17 11:35:44;;;;;;;14.93;7.95;;;15.40;99.90;;;;;;5111375;27;20378;-56
2023/04/17 11:38:16;;;;;;;12.73;7.13;;;15.60;99.90;;;;;;5084607;28;20074;-57
2023/04/17 11:40:57;;;;;;;13.32;7.35;;;15.80;99.90;;;;;;5102807;28;20051;-56
2023/04/17 11:43:26;;;;;;;10.07;5.53;;;15.90;99.90;;;;;;5050183;28;20051;-57
2023/04/17 11:45:58;;;;;;;12.15;6.38;;;15.90;99.90;;;;;;5068243;28;20040;-57
2023/04/17 11:48:27;;;;;;;12.82;7.15;;;16.00;99.90;;;;;;5086246;28;20629;-57
2023/04/17 11:50:56;;;;;;;11.48;7.28;;;16.00;99.90;;;;;;5084784;28;20043;-57
2023/04/17 11:53:24;;;;;;;15.75;7.65;;;15.90;99.90;;;;;;5096656;28;20055;-57
2023/04/17 11:56:12;;;;;;;16.45;8.30;;;15.80;99.90;;;;;;5087032;28;20052;-56
2023/04/17 11:58:51;;;;;;;12.55;7.68;;;15.80;99.90;;;;;;5105305;28;20044;-56
2023/04/17 12:01:24;;;;;;;16.13;7.82;;;15.70;99.90;;;;;;5084988;28;20040;-57
2023/04/17 12:03:54;;;;;;;12.57;7.07;;;15.60;99.90;;;;;;5090331;28;20412;-57
2023/04/17 12:06:25;;;;;;;16.02;7.20;;;15.50;99.90;;;;;;5076883;28;20028;-57
2023/04/17 12:08:54;;;;;;;11.45;6.70;;;15.60;99.90;;;;;;5088480;28;20063;-57
2023/04/17 12:11:26;;;;;;;13.20;6.03;;;15.70;99.90;;;;;;5082481;28;20048;-56
2023/04/17 12:13:56;;;;;;;8.23;5.38;;;15.70;99.90;;;;;;5089907;28;20051;-58
2023/04/17 12:16:25;;;;;;;17.63;5.88;;;15.70;99.90;;;;;;5084854;28;20051;-58
2023/04/17 12:18:55;;;;;;;12.10;6.10;;;15.70;99.90;;;;;;5081259;28;20040;-58
2023/04/17 12:21:22;;;;;;;10.57;5.78;;;15.70;99.90;;;;;;5075222;28;20041;-57
2023/04/17 12:23:50;;;;;;;11.68;5.70;;;15.80;99.90;;;;;;5074007;28;20476;-57
2023/04/17 12:26:18;;;;;;;11.90;7.53;;;16.00;99.90;;;;;;5080942;28;20114;-56
2023/04/17 12:28:45;;;;;;;17.35;8.45;;;16.00;99.90;;;;;;5070408;28;20551;-59
2023/04/17 12:31:13;;;;;;;17.23;7.90;;;16.00;99.90;;;;;;5064409;28;20052;-59
2023/04/17 12:33:41;;;;;;;17.80;8.55;;;15.90;99.90;;;;;;5072809;28;20041;-58
2023/04/17 12:36:08;;;;;;;13.38;7.30;;;15.70;99.90;;;;;;5058617;28;20049;-57
2023/04/17 12:38:36;;;;;;;16.08;8.15;;;15.50;99.90;;;;;;5036455;28;20045;-57
2023/04/17 12:41:04;;;;;;;14.57;8.35;;;15.50;99.90;;;;;;5063992;28;20049;-56
2023/04/17 12:43:32;;;;;;;14.20;8.02;;;15.40;99.90;;;;;;5061831;28;20045;-56
2023/04/17 12:46:00;;;;;;;33.63;8.57;;;15.30;99.90;;;;;;5054140;28;21461;-56
2023/04/17 12:48:28;;;;;;;12.60;6.82;;;15.20;99.90;;;;;;5038573;28;20128;-56